sensor_id;sensor_type;location;lat;lon;timestamp;temperature;humidity
1704;DHT22;849;48.780;9.216;2022-08-03T00:01:38;23.80;84.60
1704;DHT22;849;48.780;9.216;2022-08-03T00:04:05;23.80;84.80
1704;DHT22;849;48.780;9.216;2022-08-03T00:06:31;23.80;85.30
1704;DHT22;849;48.780;9.216;2022-08-03T00:08:57;23.70;85.30
1704;DHT22;849;48.780;9.216;2022-08-03T00:11:23;23.70;86.10
1704;DHT22;849;48.780;9.216;2022-08-03T00:13:49;23.70;86.00
1704;DHT22;849;48.780;9.216;2022-08-03T00:16:14;23.60;86.70
1704;DHT22;849;48.780;9.216;2022-08-03T00:18:40;23.50;87.30
1704;DHT22;849;48.780;9.216;2022-08-03T00:21:06;23.40;88.50
1704;DHT22;849;48.780;9.216;2022-08-03T00:23:32;23.50;89.20
1704;DHT22;849;48.780;9.216;2022-08-03T00:25:58;23.50;89.30
1704;DHT22;849;48.780;9.216;2022-08-03T00:28:24;23.50;89.50
1704;DHT22;849;48.780;9.216;2022-08-03T00:30:49;23.60;89.80
1704;DHT22;849;48.780;9.216;2022-08-03T00:33:15;23.50;90.20
1704;DHT22;849;48.780;9.216;2022-08-03T00:35:41;23.30;90.30
1704;DHT22;849;48.780;9.216;2022-08-03T00:38:07;23.30;90.50
1704;DHT22;849;48.780;9.216;2022-08-03T00:40:33;23.20;90.90
1704;DHT22;849;48.780;9.216;2022-08-03T00:43:02;23.20;91.00
1704;DHT22;849;48.780;9.216;2022-08-03T00:45:34;23.20;91.20
1704;DHT22;849;48.780;9.216;2022-08-03T00:48:01;23.10;91.60
1704;DHT22;849;48.780;9.216;2022-08-03T00:50:30;23.20;92.00
1704;DHT22;849;48.780;9.216;2022-08-03T00:52:57;23.20;92.00
1704;DHT22;849;48.780;9.216;2022-08-03T00:55:24;23.00;92.50
1704;DHT22;849;48.780;9.216;2022-08-03T00:57:50;23.30;92.40
1704;DHT22;849;48.780;9.216;2022-08-03T01:00:20;23.30;92.60
1704;DHT22;849;48.780;9.216;2022-08-03T01:02:46;23.20;92.70
1704;DHT22;849;48.780;9.216;2022-08-03T01:05:12;23.20;92.90
1704;DHT22;849;48.780;9.216;2022-08-03T01:11:33;23.20;93.30
1704;DHT22;849;48.780;9.216;2022-08-03T01:16:36;23.00;93.90
1704;DHT22;849;48.780;9.216;2022-08-03T01:22:34;23.10;94.40
1704;DHT22;849;48.780;9.216;2022-08-03T01:25:02;23.10;94.40
1704;DHT22;849;48.780;9.216;2022-08-03T01:30:09;23.00;94.90
1704;DHT22;849;48.780;9.216;2022-08-03T01:38:30;22.90;95.70
1704;DHT22;849;48.780;9.216;2022-08-03T01:40:57;22.90;95.90
1704;DHT22;849;48.780;9.216;2022-08-03T01:43:28;23.00;96.20
1704;DHT22;849;48.780;9.216;2022-08-03T01:45:55;23.10;96.50
1704;DHT22;849;48.780;9.216;2022-08-03T01:48:22;22.80;96.80
1704;DHT22;849;48.780;9.216;2022-08-03T01:50:50;22.80;96.90
1704;DHT22;849;48.780;9.216;2022-08-03T01:53:16;22.90;97.20
1704;DHT22;849;48.780;9.216;2022-08-03T01:55:45;22.90;97.10
1704;DHT22;849;48.780;9.216;2022-08-03T01:58:14;22.90;97.20
1704;DHT22;849;48.780;9.216;2022-08-03T02:00:41;22.80;97.80
1704;DHT22;849;48.780;9.216;2022-08-03T02:03:08;22.80;98.30
1704;DHT22;849;48.780;9.216;2022-08-03T02:05:38;22.80;98.20
1704;DHT22;849;48.780;9.216;2022-08-03T02:08:07;22.70;98.40
1704;DHT22;849;48.780;9.216;2022-08-03T02:10:35;22.50;99.40
1704;DHT22;849;48.780;9.216;2022-08-03T02:13:04;22.50;99.30
1704;DHT22;849;48.780;9.216;2022-08-03T02:15:31;22.30;99.90
1704;DHT22;849;48.780;9.216;2022-08-03T02:17:59;22.30;99.90
1704;DHT22;849;48.780;9.216;2022-08-03T02:20:27;22.30;99.90
1704;DHT22;849;48.780;9.216;2022-08-03T02:22:53;22.30;99.90
1704;DHT22;849;48.780;9.216;2022-08-03T02:25:19;22.30;99.90
1704;DHT22;849;48.780;9.216;2022-08-03T02:27:50;22.30;99.90
1704;DHT22;849;48.780;9.216;2022-08-03T02:30:17;22.10;99.90
1704;DHT22;849;48.780;9.216;2022-08-03T02:32:53;22.20;99.90
1704;DHT22;849;48.780;9.216;2022-08-03T02:35:21;22.30;99.90
1704;DHT22;849;48.780;9.216;2022-08-03T02:37:51;22.30;99.90
1704;DHT22;849;48.780;9.216;2022-08-03T02:40:19;22.30;99.90
1704;DHT22;849;48.780;9.216;2022-08-03T02:42:46;22.20;99.90
1704;DHT22;849;48.780;9.216;2022-08-03T02:45:15;22.30;99.90
1704;DHT22;849;48.780;9.216;2022-08-03T02:47:43;22.20;99.90
1704;DHT22;849;48.780;9.216;2022-08-03T02:50:11;22.30;99.90
1704;DHT22;849;48.780;9.216;2022-08-03T02:52:39;22.20;99.90
1704;DHT22;849;48.780;9.216;2022-08-03T02:55:07;22.30;99.90
1704;DHT22;849;48.780;9.216;2022-08-03T02:57:35;22.20;99.90
1704;DHT22;849;48.780;9.216;2022-08-03T03:00:03;22.20;99.90
1704;DHT22;849;48.780;9.216;2022-08-03T03:02:30;22.20;99.90
1704;DHT22;849;48.780;9.216;2022-08-03T03:04:57;22.00;99.90
1704;DHT22;849;48.780;9.216;2022-08-03T03:07:23;22.10;99.90
1704;DHT22;849;48.780;9.216;2022-08-03T03:09:49;22.20;99.90
1704;DHT22;849;48.780;9.216;2022-08-03T03:12:16;22.10;99.90
1704;DHT22;849;48.780;9.216;2022-08-03T03:14:42;22.10;99.90
1704;DHT22;849;48.780;9.216;2022-08-03T03:17:11;22.10;99.90
1704;DHT22;849;48.780;9.216;2022-08-03T03:19:39;22.20;99.90
1704;DHT22;849;48.780;9.216;2022-08-03T03:22:07;22.20;99.90
1704;DHT22;849;48.780;9.216;2022-08-03T03:24:35;22.00;99.90
1704;DHT22;849;48.780;9.216;2022-08-03T03:27:01;21.90;99.90
1704;DHT22;849;48.780;9.216;2022-08-03T03:29:27;22.00;99.90
1704;DHT22;849;48.780;9.216;2022-08-03T03:31:53;21.90;99.90
1704;DHT22;849;48.780;9.216;2022-08-03T03:34:19;21.90;99.90
1704;DHT22;849;48.780;9.216;2022-08-03T03:36:45;21.80;99.90
1704;DHT22;849;48.780;9.216;2022-08-03T03:39:11;21.80;99.90
1704;DHT22;849;48.780;9.216;2022-08-03T03:41:38;21.60;99.90
1704;DHT22;849;48.780;9.216;2022-08-03T03:44:03;21.70;99.90
1704;DHT22;849;48.780;9.216;2022-08-03T03:46:29;21.90;99.90
1704;DHT22;849;48.780;9.216;2022-08-03T03:48:55;22.00;99.90
1704;DHT22;849;48.780;9.216;2022-08-03T03:51:21;21.90;99.90
1704;DHT22;849;48.780;9.216;2022-08-03T03:54:01;21.90;99.90
1704;DHT22;849;48.780;9.216;2022-08-03T03:56:27;21.90;99.90
1704;DHT22;849;48.780;9.216;2022-08-03T03:58:54;21.80;99.90
1704;DHT22;849;48.780;9.216;2022-08-03T04:01:20;21.90;99.90
1704;DHT22;849;48.780;9.216;2022-08-03T04:03:46;21.80;99.90
1704;DHT22;849;48.780;9.216;2022-08-03T04:06:12;21.80;99.90
1704;DHT22;849;48.780;9.216;2022-08-03T04:08:56;21.80;99.90
1704;DHT22;849;48.780;9.216;2022-08-03T04:12:01;21.70;99.90
1704;DHT22;849;48.780;9.216;2022-08-03T04:14:35;21.70;99.90
1704;DHT22;849;48.780;9.216;2022-08-03T04:17:04;21.80;99.90
1704;DHT22;849;48.780;9.216;2022-08-03T04:19:41;21.80;99.90
1704;DHT22;849;48.780;9.216;2022-08-03T04:22:14;21.80;99.90
1704;DHT22;849;48.780;9.216;2022-08-03T04:24:49;21.80;99.90
1704;DHT22;849;48.780;9.216;2022-08-03T04:27:20;21.70;99.90
1704;DHT22;849;48.780;9.216;2022-08-03T04:29:48;21.90;99.90
1704;DHT22;849;48.780;9.216;2022-08-03T04:32:16;21.90;99.90
1704;DHT22;849;48.780;9.216;2022-08-03T04:34:42;21.90;99.90
1704;DHT22;849;48.780;9.216;2022-08-03T04:37:15;21.80;99.90
1704;DHT22;849;48.780;9.216;2022-08-03T04:39:43;21.80;99.90
1704;DHT22;849;48.780;9.216;2022-08-03T04:42:10;21.90;99.90
1704;DHT22;849;48.780;9.216;2022-08-03T04:44:41;21.80;99.90
1704;DHT22;849;48.780;9.216;2022-08-03T04:47:08;21.70;99.90
1704;DHT22;849;48.780;9.216;2022-08-03T04:49:36;21.80;99.90
1704;DHT22;849;48.780;9.216;2022-08-03T04:52:03;21.90;99.90
1704;DHT22;849;48.780;9.216;2022-08-03T04:54:30;21.90;99.90
1704;DHT22;849;48.780;9.216;2022-08-03T04:57:03;22.10;99.90
1704;DHT22;849;48.780;9.216;2022-08-03T04:59:29;22.00;99.90
1704;DHT22;849;48.780;9.216;2022-08-03T05:01:55;22.10;99.90
1704;DHT22;849;48.780;9.216;2022-08-03T05:04:20;22.10;99.90
1704;DHT22;849;48.780;9.216;2022-08-03T05:06:47;22.20;99.90
1704;DHT22;849;48.780;9.216;2022-08-03T05:09:13;22.20;99.90
1704;DHT22;849;48.780;9.216;2022-08-03T05:11:38;22.20;99.90
1704;DHT22;849;48.780;9.216;2022-08-03T05:14:04;22.30;99.90
1704;DHT22;849;48.780;9.216;2022-08-03T05:16:29;22.30;99.90
1704;DHT22;849;48.780;9.216;2022-08-03T05:18:55;22.30;99.90
1704;DHT22;849;48.780;9.216;2022-08-03T05:21:21;22.20;99.90
1704;DHT22;849;48.780;9.216;2022-08-03T05:23:46;22.20;99.90
1704;DHT22;849;48.780;9.216;2022-08-03T05:26:12;22.30;99.90
1704;DHT22;849;48.780;9.216;2022-08-03T05:28:38;22.30;99.90
1704;DHT22;849;48.780;9.216;2022-08-03T05:31:04;22.40;99.90
1704;DHT22;849;48.780;9.216;2022-08-03T05:33:30;22.30;99.90
1704;DHT22;849;48.780;9.216;2022-08-03T05:35:55;22.30;99.90
1704;DHT22;849;48.780;9.216;2022-08-03T05:38:21;22.20;99.90
1704;DHT22;849;48.780;9.216;2022-08-03T05:40:47;22.10;99.90
1704;DHT22;849;48.780;9.216;2022-08-03T05:43:13;21.90;99.90
1704;DHT22;849;48.780;9.216;2022-08-03T05:45:38;21.90;99.90
1704;DHT22;849;48.780;9.216;2022-08-03T05:48:04;21.90;99.90
1704;DHT22;849;48.780;9.216;2022-08-03T05:50:30;21.80;99.90
1704;DHT22;849;48.780;9.216;2022-08-03T05:52:56;21.80;99.90
1704;DHT22;849;48.780;9.216;2022-08-03T05:55:24;22.00;99.90
1704;DHT22;849;48.780;9.216;2022-08-03T05:57:50;22.00;99.90
1704;DHT22;849;48.780;9.216;2022-08-03T06:00:16;22.00;99.90
1704;DHT22;849;48.780;9.216;2022-08-03T06:02:42;21.90;99.90
1704;DHT22;849;48.780;9.216;2022-08-03T06:05:08;22.00;99.90
1704;DHT22;849;48.780;9.216;2022-08-03T06:07:35;22.10;99.90
1704;DHT22;849;48.780;9.216;2022-08-03T06:10:01;22.30;99.90
1704;DHT22;849;48.780;9.216;2022-08-03T06:12:28;22.40;99.90
1704;DHT22;849;48.780;9.216;2022-08-03T06:14:53;22.40;99.90
1704;DHT22;849;48.780;9.216;2022-08-03T06:17:19;22.40;99.90
1704;DHT22;849;48.780;9.216;2022-08-03T06:19:45;22.30;99.90
1704;DHT22;849;48.780;9.216;2022-08-03T06:22:10;22.20;99.90
1704;DHT22;849;48.780;9.216;2022-08-03T06:24:36;22.20;99.90
1704;DHT22;849;48.780;9.216;2022-08-03T06:27:02;22.30;99.90
1704;DHT22;849;48.780;9.216;2022-08-03T06:29:27;22.30;99.90
1704;DHT22;849;48.780;9.216;2022-08-03T06:31:53;22.40;99.90
1704;DHT22;849;48.780;9.216;2022-08-03T06:34:18;22.60;99.90
1704;DHT22;849;48.780;9.216;2022-08-03T06:36:44;22.60;99.90
1704;DHT22;849;48.780;9.216;2022-08-03T06:39:13;22.50;99.90
1704;DHT22;849;48.780;9.216;2022-08-03T06:41:38;22.50;99.90
1704;DHT22;849;48.780;9.216;2022-08-03T06:44:04;22.60;99.90
1704;DHT22;849;48.780;9.216;2022-08-03T06:46:30;22.60;99.90
1704;DHT22;849;48.780;9.216;2022-08-03T06:48:55;22.60;99.90
1704;DHT22;849;48.780;9.216;2022-08-03T06:51:21;22.70;99.90
1704;DHT22;849;48.780;9.216;2022-08-03T06:53:48;22.80;99.90
1704;DHT22;849;48.780;9.216;2022-08-03T06:56:14;23.10;99.90
1704;DHT22;849;48.780;9.216;2022-08-03T06:58:39;23.20;99.90
1704;DHT22;849;48.780;9.216;2022-08-03T07:01:05;23.20;99.90
1704;DHT22;849;48.780;9.216;2022-08-03T07:03:31;23.10;99.90
1704;DHT22;849;48.780;9.216;2022-08-03T07:05:56;23.10;99.90
1704;DHT22;849;48.780;9.216;2022-08-03T07:08:22;23.20;99.90
1704;DHT22;849;48.780;9.216;2022-08-03T07:10:49;23.20;99.90
1704;DHT22;849;48.780;9.216;2022-08-03T07:13:14;23.20;99.90
1704;DHT22;849;48.780;9.216;2022-08-03T07:15:40;23.20;99.90
1704;DHT22;849;48.780;9.216;2022-08-03T07:18:06;23.30;99.90
1704;DHT22;849;48.780;9.216;2022-08-03T07:20:32;23.40;99.90
1704;DHT22;849;48.780;9.216;2022-08-03T07:22:57;23.40;99.90
1704;DHT22;849;48.780;9.216;2022-08-03T07:25:23;23.40;99.90
1704;DHT22;849;48.780;9.216;2022-08-03T07:27:49;23.60;99.90
1704;DHT22;849;48.780;9.216;2022-08-03T07:30:15;23.70;99.90
1704;DHT22;849;48.780;9.216;2022-08-03T07:32:41;23.70;99.90
1704;DHT22;849;48.780;9.216;2022-08-03T07:35:17;23.80;99.90
1704;DHT22;849;48.780;9.216;2022-08-03T07:37:43;23.90;99.90
1704;DHT22;849;48.780;9.216;2022-08-03T07:40:08;24.10;99.90
1704;DHT22;849;48.780;9.216;2022-08-03T07:42:34;24.20;99.90
1704;DHT22;849;48.780;9.216;2022-08-03T07:45:00;24.20;99.90
1704;DHT22;849;48.780;9.216;2022-08-03T07:47:28;24.20;99.90
1704;DHT22;849;48.780;9.216;2022-08-03T07:49:54;24.50;99.90
1704;DHT22;849;48.780;9.216;2022-08-03T07:52:20;24.50;99.90
1704;DHT22;849;48.780;9.216;2022-08-03T07:55:05;24.50;99.90
1704;DHT22;849;48.780;9.216;2022-08-03T07:57:31;24.50;99.90
1704;DHT22;849;48.780;9.216;2022-08-03T07:59:58;24.80;99.90
1704;DHT22;849;48.780;9.216;2022-08-03T08:02:24;24.80;99.90
1704;DHT22;849;48.780;9.216;2022-08-03T08:04:49;24.80;99.90
1704;DHT22;849;48.780;9.216;2022-08-03T08:07:15;24.80;99.90
1704;DHT22;849;48.780;9.216;2022-08-03T08:09:41;25.00;99.90
1704;DHT22;849;48.780;9.216;2022-08-03T08:12:07;25.10;99.90
1704;DHT22;849;48.780;9.216;2022-08-03T08:14:34;25.20;99.90
1704;DHT22;849;48.780;9.216;2022-08-03T08:17:00;25.30;99.90
1704;DHT22;849;48.780;9.216;2022-08-03T08:19:26;25.60;99.90
1704;DHT22;849;48.780;9.216;2022-08-03T08:21:51;25.80;99.90
1704;DHT22;849;48.780;9.216;2022-08-03T08:24:17;25.60;99.90
1704;DHT22;849;48.780;9.216;2022-08-03T08:26:43;25.70;99.90
1704;DHT22;849;48.780;9.216;2022-08-03T08:29:09;25.60;99.90
1704;DHT22;849;48.780;9.216;2022-08-03T08:31:34;25.60;99.90
1704;DHT22;849;48.780;9.216;2022-08-03T08:34:00;25.80;99.90
1704;DHT22;849;48.780;9.216;2022-08-03T08:36:31;25.80;99.90
1704;DHT22;849;48.780;9.216;2022-08-03T08:38:57;25.60;99.90
1704;DHT22;849;48.780;9.216;2022-08-03T08:41:23;25.70;99.90
1704;DHT22;849;48.780;9.216;2022-08-03T08:43:49;25.70;99.90
1704;DHT22;849;48.780;9.216;2022-08-03T08:46:15;25.70;99.90
1704;DHT22;849;48.780;9.216;2022-08-03T08:48:43;25.80;99.90
1704;DHT22;849;48.780;9.216;2022-08-03T08:51:10;25.90;99.90
1704;DHT22;849;48.780;9.216;2022-08-03T08:53:36;26.00;99.90
1704;DHT22;849;48.780;9.216;2022-08-03T08:56:07;26.00;99.90
1704;DHT22;849;48.780;9.216;2022-08-03T08:58:37;26.30;98.70
1704;DHT22;849;48.780;9.216;2022-08-03T09:01:06;26.50;97.70
1704;DHT22;849;48.780;9.216;2022-08-03T09:03:32;26.40;98.70
1704;DHT22;849;48.780;9.216;2022-08-03T09:05:59;26.40;96.40
1704;DHT22;849;48.780;9.216;2022-08-03T09:08:25;26.50;95.90
1704;DHT22;849;48.780;9.216;2022-08-03T09:10:51;26.60;96.30
1704;DHT22;849;48.780;9.216;2022-08-03T09:13:17;26.60;97.20
1704;DHT22;849;48.780;9.216;2022-08-03T09:15:43;26.50;94.80
1704;DHT22;849;48.780;9.216;2022-08-03T09:18:09;26.40;95.20
1704;DHT22;849;48.780;9.216;2022-08-03T09:20:35;26.50;94.80
1704;DHT22;849;48.780;9.216;2022-08-03T09:23:02;26.70;92.60
1704;DHT22;849;48.780;9.216;2022-08-03T09:25:34;26.70;93.90
1704;DHT22;849;48.780;9.216;2022-08-03T09:28:13;26.80;94.40
1704;DHT22;849;48.780;9.216;2022-08-03T09:30:41;27.10;91.10
1704;DHT22;849;48.780;9.216;2022-08-03T09:33:10;27.50;89.20
1704;DHT22;849;48.780;9.216;2022-08-03T09:35:43;27.60;87.20
1704;DHT22;849;48.780;9.216;2022-08-03T09:38:19;27.50;89.30
1704;DHT22;849;48.780;9.216;2022-08-03T09:40:51;27.30;88.50
1704;DHT22;849;48.780;9.216;2022-08-03T09:43:17;27.40;85.10
1704;DHT22;849;48.780;9.216;2022-08-03T09:45:43;27.70;84.80
1704;DHT22;849;48.780;9.216;2022-08-03T09:48:26;27.70;83.10
1704;DHT22;849;48.780;9.216;2022-08-03T09:50:59;27.90;75.40
1704;DHT22;849;48.780;9.216;2022-08-03T09:53:25;27.70;77.50
1704;DHT22;849;48.780;9.216;2022-08-03T09:55:55;28.00;74.60
1704;DHT22;849;48.780;9.216;2022-08-03T09:58:25;27.90;66.80
1704;DHT22;849;48.780;9.216;2022-08-03T10:00:55;28.10;67.00
1704;DHT22;849;48.780;9.216;2022-08-03T10:03:22;28.20;68.10
1704;DHT22;849;48.780;9.216;2022-08-03T10:05:49;28.20;67.90
1704;DHT22;849;48.780;9.216;2022-08-03T10:08:16;28.50;65.60
1704;DHT22;849;48.780;9.216;2022-08-03T10:10:43;28.50;65.00
1704;DHT22;849;48.780;9.216;2022-08-03T10:13:14;28.60;63.10
1704;DHT22;849;48.780;9.216;2022-08-03T10:15:40;28.70;65.20
1704;DHT22;849;48.780;9.216;2022-08-03T10:18:06;28.80;66.20
1704;DHT22;849;48.780;9.216;2022-08-03T10:20:36;28.90;63.90
1704;DHT22;849;48.780;9.216;2022-08-03T10:23:03;29.00;64.30
1704;DHT22;849;48.780;9.216;2022-08-03T10:25:30;28.70;65.60
1704;DHT22;849;48.780;9.216;2022-08-03T10:28:01;28.70;63.80
1704;DHT22;849;48.780;9.216;2022-08-03T10:30:33;28.70;67.10
1704;DHT22;849;48.780;9.216;2022-08-03T10:33:08;28.90;65.90
1704;DHT22;849;48.780;9.216;2022-08-03T10:35:34;29.00;64.80
1704;DHT22;849;48.780;9.216;2022-08-03T10:38:17;28.90;66.30
1704;DHT22;849;48.780;9.216;2022-08-03T10:40:43;29.20;63.20
1704;DHT22;849;48.780;9.216;2022-08-03T10:43:17;29.20;60.80
1704;DHT22;849;48.780;9.216;2022-08-03T10:45:45;29.20;61.70
1704;DHT22;849;48.780;9.216;2022-08-03T10:48:11;29.30;60.90
1704;DHT22;849;48.780;9.216;2022-08-03T10:50:37;29.10;60.40
1704;DHT22;849;48.780;9.216;2022-08-03T10:53:06;29.10;62.70
1704;DHT22;849;48.780;9.216;2022-08-03T10:55:37;29.30;63.20
1704;DHT22;849;48.780;9.216;2022-08-03T11:01:07;29.70;60.00
1704;DHT22;849;48.780;9.216;2022-08-03T11:04:12;29.80;59.50
1704;DHT22;849;48.780;9.216;2022-08-03T11:06:24;29.70;60.90
1704;DHT22;849;48.780;9.216;2022-08-03T11:11:36;29.70;59.20
1704;DHT22;849;48.780;9.216;2022-08-03T11:16:48;29.60;59.30
1704;DHT22;849;48.780;9.216;2022-08-03T11:19:18;29.70;59.60
1704;DHT22;849;48.780;9.216;2022-08-03T11:27:22;29.70;59.50
1704;DHT22;849;48.780;9.216;2022-08-03T11:43:00;30.30;57.10
1704;DHT22;849;48.780;9.216;2022-08-03T11:45:26;30.00;57.30
1704;DHT22;849;48.780;9.216;2022-08-03T11:47:54;29.80;57.70
1704;DHT22;849;48.780;9.216;2022-08-03T11:50:20;30.00;58.60
1704;DHT22;849;48.780;9.216;2022-08-03T11:52:47;30.30;58.10
1704;DHT22;849;48.780;9.216;2022-08-03T11:55:18;30.40;58.00
1704;DHT22;849;48.780;9.216;2022-08-03T11:57:46;30.50;58.60
1704;DHT22;849;48.780;9.216;2022-08-03T12:00:20;30.80;59.00
1704;DHT22;849;48.780;9.216;2022-08-03T12:03:07;30.80;56.50
1704;DHT22;849;48.780;9.216;2022-08-03T12:05:39;30.40;56.40
1704;DHT22;849;48.780;9.216;2022-08-03T12:08:06;30.40;58.30
1704;DHT22;849;48.780;9.216;2022-08-03T12:10:32;30.60;55.50
1704;DHT22;849;48.780;9.216;2022-08-03T12:12:59;30.30;55.30
1704;DHT22;849;48.780;9.216;2022-08-03T12:15:26;30.10;56.30
1704;DHT22;849;48.780;9.216;2022-08-03T12:17:53;30.30;57.70
1704;DHT22;849;48.780;9.216;2022-08-03T12:20:24;30.50;58.10
1704;DHT22;849;48.780;9.216;2022-08-03T12:22:50;30.60;61.90
1704;DHT22;849;48.780;9.216;2022-08-03T12:27:47;30.40;60.00
1704;DHT22;849;48.780;9.216;2022-08-03T12:30:12;30.80;57.80
1704;DHT22;849;48.780;9.216;2022-08-03T12:32:38;30.90;57.10
1704;DHT22;849;48.780;9.216;2022-08-03T12:35:07;31.20;56.00
1704;DHT22;849;48.780;9.216;2022-08-03T12:37:33;31.00;57.00
1704;DHT22;849;48.780;9.216;2022-08-03T12:40:00;31.20;56.80
1704;DHT22;849;48.780;9.216;2022-08-03T12:42:37;31.40;55.00
1704;DHT22;849;48.780;9.216;2022-08-03T12:45:23;31.30;55.30
1704;DHT22;849;48.780;9.216;2022-08-03T12:47:54;31.30;56.00
1704;DHT22;849;48.780;9.216;2022-08-03T12:50:34;30.90;59.10
1704;DHT22;849;48.780;9.216;2022-08-03T12:53:03;30.30;60.50
1704;DHT22;849;48.780;9.216;2022-08-03T12:55:30;30.10;63.60
1704;DHT22;849;48.780;9.216;2022-08-03T12:58:00;29.90;60.40
1704;DHT22;849;48.780;9.216;2022-08-03T13:00:26;29.80;63.40
1704;DHT22;849;48.780;9.216;2022-08-03T13:03:06;29.50;60.90
1704;DHT22;849;48.780;9.216;2022-08-03T13:05:42;29.40;59.40
1704;DHT22;849;48.780;9.216;2022-08-03T13:08:20;29.80;59.90
1704;DHT22;849;48.780;9.216;2022-08-03T13:10:46;30.40;59.20
1704;DHT22;849;48.780;9.216;2022-08-03T13:13:12;30.90;57.90
1704;DHT22;849;48.780;9.216;2022-08-03T13:15:38;30.70;58.60
1704;DHT22;849;48.780;9.216;2022-08-03T13:18:03;30.80;59.60
1704;DHT22;849;48.780;9.216;2022-08-03T13:20:29;30.90;58.30
1704;DHT22;849;48.780;9.216;2022-08-03T13:22:55;31.00;58.90
1704;DHT22;849;48.780;9.216;2022-08-03T13:25:21;30.70;59.30
1704;DHT22;849;48.780;9.216;2022-08-03T13:27:47;31.00;57.60
1704;DHT22;849;48.780;9.216;2022-08-03T13:30:13;31.20;56.10
1704;DHT22;849;48.780;9.216;2022-08-03T13:32:39;30.90;59.60
1704;DHT22;849;48.780;9.216;2022-08-03T13:35:06;30.90;58.00
1704;DHT22;849;48.780;9.216;2022-08-03T13:37:32;31.10;56.60
1704;DHT22;849;48.780;9.216;2022-08-03T13:40:00;31.40;56.70
1704;DHT22;849;48.780;9.216;2022-08-03T13:42:33;31.50;56.30
1704;DHT22;849;48.780;9.216;2022-08-03T13:45:00;31.80;55.90
1704;DHT22;849;48.780;9.216;2022-08-03T13:47:27;32.00;55.00
1704;DHT22;849;48.780;9.216;2022-08-03T13:49:53;32.10;55.80
1704;DHT22;849;48.780;9.216;2022-08-03T13:52:19;32.20;54.80
1704;DHT22;849;48.780;9.216;2022-08-03T13:54:45;32.40;54.20
1704;DHT22;849;48.780;9.216;2022-08-03T13:57:10;32.70;53.80
1704;DHT22;849;48.780;9.216;2022-08-03T13:59:36;32.60;53.40
1704;DHT22;849;48.780;9.216;2022-08-03T14:02:03;32.30;53.70
1704;DHT22;849;48.780;9.216;2022-08-03T14:04:29;32.40;53.90
1704;DHT22;849;48.780;9.216;2022-08-03T14:06:55;32.80;53.50
1704;DHT22;849;48.780;9.216;2022-08-03T14:09:21;32.90;52.70
1704;DHT22;849;48.780;9.216;2022-08-03T14:11:47;32.90;53.50
1704;DHT22;849;48.780;9.216;2022-08-03T14:14:13;32.70;52.90
1704;DHT22;849;48.780;9.216;2022-08-03T14:16:38;32.80;53.00
1704;DHT22;849;48.780;9.216;2022-08-03T14:19:04;33.00;52.70
1704;DHT22;849;48.780;9.216;2022-08-03T14:21:31;33.20;52.80
1704;DHT22;849;48.780;9.216;2022-08-03T14:23:57;33.10;52.30
1704;DHT22;849;48.780;9.216;2022-08-03T14:26:23;33.30;52.10
1704;DHT22;849;48.780;9.216;2022-08-03T14:28:48;33.30;51.10
1704;DHT22;849;48.780;9.216;2022-08-03T14:31:14;33.00;51.70
1704;DHT22;849;48.780;9.216;2022-08-03T14:33:40;33.00;51.70
1704;DHT22;849;48.780;9.216;2022-08-03T14:36:05;33.00;52.20
1704;DHT22;849;48.780;9.216;2022-08-03T14:38:31;33.00;51.50
1704;DHT22;849;48.780;9.216;2022-08-03T14:40:57;33.00;51.70
1704;DHT22;849;48.780;9.216;2022-08-03T14:43:23;33.10;52.50
1704;DHT22;849;48.780;9.216;2022-08-03T14:45:50;33.20;52.60
1704;DHT22;849;48.780;9.216;2022-08-03T14:48:21;33.40;51.10
1704;DHT22;849;48.780;9.216;2022-08-03T14:50:47;33.50;52.70
1704;DHT22;849;48.780;9.216;2022-08-03T14:53:13;33.90;50.70
1704;DHT22;849;48.780;9.216;2022-08-03T14:55:39;33.90;49.90
1704;DHT22;849;48.780;9.216;2022-08-03T14:58:05;33.80;49.30
1704;DHT22;849;48.780;9.216;2022-08-03T15:00:35;33.90;49.70
1704;DHT22;849;48.780;9.216;2022-08-03T15:03:01;34.00;50.00
1704;DHT22;849;48.780;9.216;2022-08-03T15:05:27;33.90;49.50
1704;DHT22;849;48.780;9.216;2022-08-03T15:07:53;34.30;50.20
1704;DHT22;849;48.780;9.216;2022-08-03T15:10:19;34.20;47.80
1704;DHT22;849;48.780;9.216;2022-08-03T15:12:45;34.40;48.50
1704;DHT22;849;48.780;9.216;2022-08-03T15:15:10;34.70;49.20
1704;DHT22;849;48.780;9.216;2022-08-03T15:17:36;34.90;48.50
1704;DHT22;849;48.780;9.216;2022-08-03T15:20:03;35.30;48.40
1704;DHT22;849;48.780;9.216;2022-08-03T15:22:29;35.50;47.00
1704;DHT22;849;48.780;9.216;2022-08-03T15:24:54;35.80;47.00
1704;DHT22;849;48.780;9.216;2022-08-03T15:27:21;36.30;45.80
1704;DHT22;849;48.780;9.216;2022-08-03T15:29:47;36.80;44.60
1704;DHT22;849;48.780;9.216;2022-08-03T15:32:12;37.40;43.60
1704;DHT22;849;48.780;9.216;2022-08-03T15:34:38;38.10;43.90
1704;DHT22;849;48.780;9.216;2022-08-03T15:37:04;39.70;40.30
1704;DHT22;849;48.780;9.216;2022-08-03T15:39:30;42.00;39.70
1704;DHT22;849;48.780;9.216;2022-08-03T15:41:56;44.50;36.80
1704;DHT22;849;48.780;9.216;2022-08-03T15:44:21;46.70;34.80
1704;DHT22;849;48.780;9.216;2022-08-03T15:46:47;48.10;32.60
1704;DHT22;849;48.780;9.216;2022-08-03T15:49:13;49.30;30.80
1704;DHT22;849;48.780;9.216;2022-08-03T15:51:39;50.10;31.00
1704;DHT22;849;48.780;9.216;2022-08-03T15:54:05;50.70;29.30
1704;DHT22;849;48.780;9.216;2022-08-03T15:56:31;51.10;29.50
1704;DHT22;849;48.780;9.216;2022-08-03T15:58:57;51.20;29.60
1704;DHT22;849;48.780;9.216;2022-08-03T16:01:23;51.80;28.60
1704;DHT22;849;48.780;9.216;2022-08-03T16:03:52;51.70;28.80
1704;DHT22;849;48.780;9.216;2022-08-03T16:06:18;52.20;28.50
1704;DHT22;849;48.780;9.216;2022-08-03T16:08:43;52.50;28.20
1704;DHT22;849;48.780;9.216;2022-08-03T16:11:09;52.70;27.60
1704;DHT22;849;48.780;9.216;2022-08-03T16:13:35;52.70;27.70
1704;DHT22;849;48.780;9.216;2022-08-03T16:16:01;52.60;27.90
1704;DHT22;849;48.780;9.216;2022-08-03T16:18:29;52.70;28.00
1704;DHT22;849;48.780;9.216;2022-08-03T16:20:56;52.30;27.80
1704;DHT22;849;48.780;9.216;2022-08-03T16:23:23;52.30;27.40
1704;DHT22;849;48.780;9.216;2022-08-03T16:25:49;52.20;27.90
1704;DHT22;849;48.780;9.216;2022-08-03T16:28:16;52.00;28.00
1704;DHT22;849;48.780;9.216;2022-08-03T16:30:43;51.80;27.60
1704;DHT22;849;48.780;9.216;2022-08-03T16:33:10;51.40;27.70
1704;DHT22;849;48.780;9.216;2022-08-03T16:35:37;51.10;27.70
1704;DHT22;849;48.780;9.216;2022-08-03T16:38:03;50.20;28.70
1704;DHT22;849;48.780;9.216;2022-08-03T16:40:29;49.40;28.50
1704;DHT22;849;48.780;9.216;2022-08-03T16:42:54;48.80;29.10
1704;DHT22;849;48.780;9.216;2022-08-03T16:45:20;48.40;29.70
1704;DHT22;849;48.780;9.216;2022-08-03T16:47:46;48.10;30.00
1704;DHT22;849;48.780;9.216;2022-08-03T16:50:11;47.40;29.50
1704;DHT22;849;48.780;9.216;2022-08-03T16:52:37;46.30;30.10
1704;DHT22;849;48.780;9.216;2022-08-03T16:55:03;45.60;30.30
1704;DHT22;849;48.780;9.216;2022-08-03T16:57:30;45.00;30.90
1704;DHT22;849;48.780;9.216;2022-08-03T16:59:55;45.10;31.20
1704;DHT22;849;48.780;9.216;2022-08-03T17:02:23;45.60;30.90
1704;DHT22;849;48.780;9.216;2022-08-03T17:04:50;45.70;31.80
1704;DHT22;849;48.780;9.216;2022-08-03T17:07:17;45.30;31.10